首页
METAR-TAF:

METAR-TAF

机场 :

Dekalb-Peachtree Airport

亚特兰大, 喬治亞, 美国

纬度: 33-52-42N, 经度: 084-17-53W, 海拔: 305米

当前天气观测

该预报发布于1小时和6分钟前的19:53 UTC
风速3节,风向西南
温度 17°C
湿度 55%
气压 1014 hPa
能見度: 16.1公里
阴天层高于3800英尺

METAR: KPDK 171953Z 23003KT 10SM OVC038 17/08 A2993 RMK AO2 SLP136 T01720078

时间: 15:59 (20:59 UTC)

预报

该预报发布于1小时和6分钟前的19:53 UTC
预报有效从17日的 20点(UTC)到 18日的 18点(UTC)
风速4节,风向东南
能見度: 10公里
多云层高于3500英尺
从 18日的 0700点(UTC)
风速节,风向
能見度: 10公里
多云层高于2500英尺
从 18日的 1000点(UTC)
风速节,风向
能見度: 10公里
少量云层高于900英尺
多云层高于1500英尺
从 18日的 1100点(UTC)
风速节,风向
能見度: 10公里
少量云层高于900英尺
散云层高于1500英尺
从 18日的 1600点(UTC)
风速6节,风向西
能見度: 10公里
少量云层高于25000英尺

TAF: KPDK 171953Z 1720/1818 13004KT P6SM BKN035 FM180700 00000KT P6SM BKN025 FM181000 00000KT P6SM FEW009 BKN015 FM181100 00000KT P6SM FEW009 SCT015 FM181600 28006KT P6SM FEW250

超过4000个机场的气象观测和天气预报(METAR&TAF报告)。

可查询的气象台以黄色和红色小点在地图上表示。

将鼠标移到小点上方,可查看气象台名称。

然后点击查看天气观测和预报。

如需切换地图:点击带黑十字的绿色按钮放大地图;点击带横线的绿色按钮缩小地图;或者点击绿色箭头查看邻近地区的地图。


METAR-TAF: